Time;durP1;ratioP1;P1;durP2;ratioP2;P2;SDS_P1;SDS_P2;PMS_P1;PMS_P2;Temp;Humidity;BMP_temperature;BMP_pressure;BME280_temperature;BME280_humidity;BME280_pressure;Samples;Min_cycle;Max_cycle;Signal;HPM_P1;HPM_P2
2023/12/17 00:00:32;;;;;;;18.95;10.45;;;;;;;;;;5010882;28;20038;-76
2023/12/17 00:03:00;;;;;;;18.67;9.52;;;;;;;;;;5027720;28;20130;-78
2023/12/17 00:05:26;;;;;;;23.42;10.90;;;;;;;;;;5029447;28;20045;-75
2023/12/17 00:07:52;;;;;;;21.15;9.60;;;;;;;;;;5028167;28;20029;-76
2023/12/17 00:10:18;;;;;;;22.00;10.30;;;;;;;;;;5019099;28;20033;-77
2023/12/17 00:12:46;;;;;;;24.15;10.57;;;;;;;;;;5009818;28;20103;-77
2023/12/17 00:15:12;;;;;;;20.33;10.00;;;;;;;;;;5028120;28;20038;-76
2023/12/17 00:17:38;;;;;;;19.95;9.65;;;;;;;;;;5023985;28;20083;-75
2023/12/17 00:20:04;;;;;;;19.30;9.55;;;;;;;;;;5026695;28;20037;-77
2023/12/17 00:22:32;;;;;;;20.90;9.90;;;;;;;;;;5027601;28;20029;-77
2023/12/17 00:24:58;;;;;;;20.88;9.73;;;;;;;;;;5024252;28;20026;-77
2023/12/17 00:27:24;;;;;;;19.00;9.75;;;;;;;;;;4993606;28;20025;-75
2023/12/17 00:29:50;;;;;;;24.33;9.68;;;;;;;;;;5004443;28;20069;-77
2023/12/17 00:32:16;;;;;;;19.63;9.73;;;;;;;;;;5025372;28;20033;-76
2023/12/17 00:34:43;;;;;;;17.80;9.00;;;;;;;;;;5026163;28;20406;-77
2023/12/17 00:37:09;;;;;;;19.40;10.15;;;;;;;;;;5025944;28;20057;-77
2023/12/17 00:39:35;;;;;;;17.23;9.27;;;;;;;;;;5028032;28;20030;-76
2023/12/17 00:42:01;;;;;;;18.35;8.63;;;;;;;;;;5026797;28;20120;-77
2023/12/17 00:44:27;;;;;;;21.95;10.00;;;;;;;;;;5027792;28;20053;-77
2023/12/17 00:46:53;;;;;;;18.52;9.45;;;;;;;;;;5027137;28;20052;-77
2023/12/17 00:49:19;;;;;;;23.38;9.20;;;;;;;;;;5027858;28;20094;-76
2023/12/17 00:51:46;;;;;;;15.00;9.18;;;;;;;;;;5023051;28;20033;-77
2023/12/17 00:54:12;;;;;;;22.30;9.13;;;;;;;;;;5013486;28;20048;-77
2023/12/17 00:56:38;;;;;;;18.70;9.18;;;;;;;;;;5031098;28;20112;-77
2023/12/17 00:59:05;;;;;;;16.35;9.75;;;;;;;;;;5031675;28;20507;-76
2023/12/17 01:01:31;;;;;;;19.63;9.98;;;;;;;;;;5029582;28;20069;-76
2023/12/17 01:03:57;;;;;;;23.92;10.00;;;;;;;;;;5014738;28;20022;-76
2023/12/17 01:06:23;;;;;;;17.67;9.73;;;;;;;;;;5030635;28;20037;-76
2023/12/17 01:08:49;;;;;;;19.15;10.57;;;;;;;;;;5031163;28;20041;-76
2023/12/17 01:11:16;;;;;;;17.63;8.95;;;;;;;;;;5029354;28;20091;-76
2023/12/17 01:13:42;;;;;;;16.30;9.95;;;;;;;;;;5032170;28;20037;-78
2023/12/17 01:16:08;;;;;;;17.33;9.38;;;;;;;;;;5033205;28;20153;-77
2023/12/17 01:18:34;;;;;;;19.52;9.82;;;;;;;;;;5034805;28;20080;-75
2023/12/17 01:21:00;;;;;;;15.45;8.45;;;;;;;;;;5033849;28;20030;-77
2023/12/17 01:23:27;;;;;;;17.45;9.32;;;;;;;;;;5027047;28;20025;-77
2023/12/17 01:25:53;;;;;;;17.70;8.65;;;;;;;;;;5030726;28;20028;-76
2023/12/17 01:28:19;;;;;;;15.40;9.15;;;;;;;;;;5031017;28;20083;-77
2023/12/17 01:30:45;;;;;;;18.50;9.35;;;;;;;;;;5033722;28;20025;-75
2023/12/17 01:33:12;;;;;;;16.52;9.70;;;;;;;;;;5030860;28;20095;-76
2023/12/17 01:35:38;;;;;;;17.73;9.05;;;;;;;;;;5009973;28;20053;-77
2023/12/17 01:38:04;;;;;;;20.42;9.57;;;;;;;;;;5029937;28;20033;-77
2023/12/17 01:40:32;;;;;;;17.38;9.43;;;;;;;;;;5030604;28;20030;-78
2023/12/17 01:42:58;;;;;;;18.95;9.30;;;;;;;;;;5030138;28;20034;-75
2023/12/17 01:45:24;;;;;;;17.48;8.35;;;;;;;;;;5011659;28;20026;-76
2023/12/17 01:47:51;;;;;;;16.73;9.40;;;;;;;;;;5025281;28;20026;-76
2023/12/17 01:50:17;;;;;;;15.88;9.13;;;;;;;;;;5029590;28;20108;-75
2023/12/17 01:52:43;;;;;;;15.88;9.45;;;;;;;;;;5013835;28;20048;-77
2023/12/17 01:55:10;;;;;;;21.70;10.57;;;;;;;;;;5027899;28;20041;-75
2023/12/17 01:57:36;;;;;;;15.63;8.20;;;;;;;;;;5014948;28;20029;-77
2023/12/17 02:00:03;;;;;;;15.40;8.70;;;;;;;;;;5012872;28;20132;-78
2023/12/17 02:02:31;;;;;;;14.52;8.13;;;;;;;;;;5030252;28;20033;-76
2023/12/17 02:04:58;;;;;;;12.85;8.63;;;;;;;;;;5030714;28;20470;-75
2023/12/17 02:07:24;;;;;;;16.70;8.23;;;;;;;;;;5029956;28;20029;-75
2023/12/17 02:09:50;;;;;;;14.65;8.15;;;;;;;;;;5006452;28;20511;-76
2023/12/17 02:12:29;;;;;;;16.08;8.35;;;;;;;;;;5029383;28;20034;-76
2023/12/17 02:14:55;;;;;;;18.98;8.75;;;;;;;;;;5008197;28;20522;-76
2023/12/17 02:17:28;;;;;;;14.93;8.45;;;;;;;;;;4995842;28;20036;-76
2023/12/17 02:19:55;;;;;;;17.73;8.43;;;;;;;;;;5017084;28;20059;-76
2023/12/17 02:22:24;;;;;;;12.70;7.75;;;;;;;;;;5026707;28;20025;-76
2023/12/17 02:24:54;;;;;;;14.23;8.85;;;;;;;;;;5030550;28;20068;-78
2023/12/17 02:27:21;;;;;;;11.43;7.93;;;;;;;;;;5029975;28;20022;-77
2023/12/17 02:29:47;;;;;;;17.45;8.52;;;;;;;;;;5036641;28;20033;-76
2023/12/17 02:32:14;;;;;;;14.93;9.98;;;;;;;;;;5028655;28;20036;-76
2023/12/17 02:34:40;;;;;;;12.75;8.38;;;;;;;;;;5010837;28;20124;-76
2023/12/17 02:37:07;;;;;;;15.35;8.75;;;;;;;;;;5026591;28;20030;-77
2023/12/17 02:39:33;;;;;;;12.27;7.57;;;;;;;;;;5028754;28;20087;-77
2023/12/17 02:41:59;;;;;;;10.50;6.57;;;;;;;;;;5027997;28;20033;-76
2023/12/17 02:44:25;;;;;;;14.55;5.85;;;;;;;;;;5006416;28;20053;-77
2023/12/17 02:46:52;;;;;;;9.05;5.80;;;;;;;;;;5010785;28;20501;-76
2023/12/17 02:49:18;;;;;;;9.45;5.60;;;;;;;;;;5011719;28;20389;-76
2023/12/17 02:51:44;;;;;;;12.32;4.88;;;;;;;;;;5010970;28;20060;-76
2023/12/17 02:54:11;;;;;;;9.43;4.97;;;;;;;;;;5029158;28;20045;-76
2023/12/17 02:56:38;;;;;;;13.00;4.82;;;;;;;;;;5024652;28;20051;-77
2023/12/17 02:59:05;;;;;;;9.95;4.63;;;;;;;;;;5005077;28;20099;-77
2023/12/17 03:01:32;;;;;;;11.65;4.50;;;;;;;;;;5021703;28;20038;-77
2023/12/17 03:03:58;;;;;;;13.93;5.13;;;;;;;;;;5010329;28;20037;-76
2023/12/17 03:06:26;;;;;;;14.85;5.13;;;;;;;;;;5012182;28;20096;-77
2023/12/17 03:08:52;;;;;;;12.57;4.35;;;;;;;;;;4990039;28;20030;-77
2023/12/17 03:11:18;;;;;;;10.65;4.30;;;;;;;;;;5023668;28;20032;-77
2023/12/17 03:13:45;;;;;;;8.75;3.70;;;;;;;;;;5009215;28;20042;-77
2023/12/17 03:16:11;;;;;;;6.70;3.92;;;;;;;;;;4998913;28;20109;-76
2023/12/17 03:18:37;;;;;;;8.88;4.22;;;;;;;;;;5009149;28;20048;-77
2023/12/17 03:21:07;;;;;;;12.60;4.00;;;;;;;;;;5009665;28;20057;-78
2023/12/17 03:23:34;;;;;;;9.15;4.15;;;;;;;;;;5008878;28;20030;-77
2023/12/17 03:26:00;;;;;;;10.27;4.40;;;;;;;;;;5008424;28;20538;-75
2023/12/17 03:28:26;;;;;;;13.30;4.25;;;;;;;;;;5007619;28;20108;-77
2023/12/17 03:30:52;;;;;;;11.75;5.43;;;;;;;;;;5009356;28;20030;-75
2023/12/17 03:33:18;;;;;;;14.10;6.05;;;;;;;;;;5008205;28;20038;-77
2023/12/17 03:35:44;;;;;;;13.52;6.15;;;;;;;;;;5009138;28;20038;-76
2023/12/17 03:38:10;;;;;;;16.27;6.30;;;;;;;;;;5023441;28;20449;-76
2023/12/17 03:40:36;;;;;;;21.02;6.63;;;;;;;;;;5007806;28;20034;-76
2023/12/17 03:43:03;;;;;;;15.30;7.07;;;;;;;;;;5008972;28;20029;-75
2023/12/17 03:45:29;;;;;;;18.73;7.78;;;;;;;;;;5007411;28;20029;-76
2023/12/17 03:47:55;;;;;;;19.77;7.88;;;;;;;;;;5019998;28;20041;-77
2023/12/17 03:50:21;;;;;;;24.40;9.13;;;;;;;;;;4987919;28;20036;-77
2023/12/17 03:52:49;;;;;;;24.42;8.35;;;;;;;;;;5003040;28;20530;-77
2023/12/17 03:55:15;;;;;;;21.65;9.65;;;;;;;;;;5006145;28;20034;-77
2023/12/17 03:57:42;;;;;;;22.83;10.15;;;;;;;;;;5007457;28;20038;-76
2023/12/17 04:00:11;;;;;;;28.60;9.00;;;;;;;;;;5004390;28;20062;-76
2023/12/17 04:02:37;;;;;;;25.13;10.48;;;;;;;;;;5008946;28;20430;-76
2023/12/17 04:05:04;;;;;;;29.20;11.27;;;;;;;;;;5011748;28;20537;-77
2023/12/17 04:07:30;;;;;;;23.20;10.10;;;;;;;;;;5010377;28;20113;-76
2023/12/17 04:09:57;;;;;;;23.58;10.63;;;;;;;;;;5011742;28;20131;-76
2023/12/17 04:12:23;;;;;;;36.55;12.05;;;;;;;;;;5009267;28;20369;-76
2023/12/17 04:14:49;;;;;;;25.02;10.68;;;;;;;;;;5008986;28;20038;-76
2023/12/17 04:17:16;;;;;;;23.02;10.65;;;;;;;;;;5006533;28;20060;-76
2023/12/17 04:19:42;;;;;;;28.30;11.15;;;;;;;;;;5009370;28;20565;-77
2023/12/17 04:22:08;;;;;;;27.83;11.50;;;;;;;;;;5008656;28;20096;-77
2023/12/17 04:24:34;;;;;;;33.40;12.10;;;;;;;;;;5009564;28;20022;-75
2023/12/17 04:27:00;;;;;;;22.33;12.10;;;;;;;;;;5025346;28;20442;-74
2023/12/17 04:29:26;;;;;;;28.33;11.35;;;;;;;;;;5011755;28;20060;-76
2023/12/17 04:31:54;;;;;;;24.85;12.43;;;;;;;;;;5011728;28;20200;-76
2023/12/17 04:34:20;;;;;;;29.25;12.32;;;;;;;;;;5013073;28;20418;-76
2023/12/17 04:36:46;;;;;;;27.05;11.90;;;;;;;;;;5027339;28;20277;-77
2023/12/17 04:39:12;;;;;;;29.52;12.30;;;;;;;;;;5012885;28;20229;-77
2023/12/17 04:41:39;;;;;;;31.25;14.13;;;;;;;;;;5026079;28;20111;-75
2023/12/17 04:44:06;;;;;;;26.85;14.02;;;;;;;;;;5012991;28;20036;-76
2023/12/17 04:46:32;;;;;;;27.02;13.00;;;;;;;;;;5011792;28;20024;-76
2023/12/17 04:48:58;;;;;;;26.83;12.52;;;;;;;;;;5009834;28;20037;-76
2023/12/17 04:51:25;;;;;;;30.38;13.30;;;;;;;;;;5010871;28;20038;-77
2023/12/17 04:53:51;;;;;;;26.55;13.45;;;;;;;;;;5011647;28;20029;-74
2023/12/17 04:56:21;;;;;;;29.83;15.02;;;;;;;;;;5016333;28;20538;-76
2023/12/17 04:58:48;;;;;;;32.00;15.82;;;;;;;;;;5017860;28;20041;-77
2023/12/17 05:01:14;;;;;;;25.80;14.20;;;;;;;;;;5031131;28;20045;-76
2023/12/17 05:03:40;;;;;;;32.65;16.60;;;;;;;;;;5029966;28;20041;-77
2023/12/17 05:06:07;;;;;;;35.05;16.75;;;;;;;;;;5031901;28;20422;-77
2023/12/17 05:08:33;;;;;;;27.52;15.25;;;;;;;;;;5030699;28;20040;-76
2023/12/17 05:11:00;;;;;;;31.08;15.95;;;;;;;;;;5028384;28;20094;-75
2023/12/17 05:13:26;;;;;;;32.97;16.20;;;;;;;;;;5031092;28;20053;-75
2023/12/17 05:15:52;;;;;;;32.42;15.65;;;;;;;;;;5031969;28;20051;-76
2023/12/17 05:18:19;;;;;;;30.27;16.33;;;;;;;;;;5030455;28;20079;-76
2023/12/17 05:20:45;;;;;;;34.28;16.30;;;;;;;;;;5028252;28;20045;-76
2023/12/17 05:23:15;;;;;;;40.33;18.90;;;;;;;;;;5026944;28;20068;-77
2023/12/17 05:25:41;;;;;;;33.97;14.95;;;;;;;;;;5030933;28;20415;-76
2023/12/17 05:28:09;;;;;;;34.30;16.58;;;;;;;;;;5012746;28;20034;-75
2023/12/17 05:30:36;;;;;;;34.45;15.55;;;;;;;;;;5030113;28;20439;-76
2023/12/17 05:33:03;;;;;;;36.40;15.45;;;;;;;;;;5031661;28;20037;-76
2023/12/17 05:35:29;;;;;;;37.45;13.77;;;;;;;;;;5032070;28;20037;-76
2023/12/17 05:37:55;;;;;;;29.27;12.88;;;;;;;;;;5032193;28;20037;-76
2023/12/17 05:40:21;;;;;;;41.83;13.85;;;;;;;;;;5014720;28;20364;-76
2023/12/17 05:42:47;;;;;;;23.52;10.80;;;;;;;;;;5031888;28;20037;-76
2023/12/17 05:45:13;;;;;;;36.55;10.88;;;;;;;;;;5030968;28;20029;-77
2023/12/17 05:47:40;;;;;;;29.92;11.48;;;;;;;;;;5033911;28;20028;-76
2023/12/17 05:50:07;;;;;;;19.85;9.88;;;;;;;;;;5026877;28;20057;-77
2023/12/17 05:52:34;;;;;;;27.08;12.00;;;;;;;;;;5033182;28;20099;-75
2023/12/17 05:55:00;;;;;;;41.28;11.68;;;;;;;;;;5030819;28;20108;-76
2023/12/17 05:57:26;;;;;;;34.53;11.48;;;;;;;;;;5031257;28;20038;-75
2023/12/17 05:59:55;;;;;;;34.47;14.02;;;;;;;;;;5030548;28;20155;-76
2023/12/17 06:02:22;;;;;;;33.35;14.95;;;;;;;;;;5035436;28;20053;-76
2023/12/17 06:04:48;;;;;;;37.50;14.38;;;;;;;;;;5030889;28;20120;-77
2023/12/17 06:07:14;;;;;;;35.60;15.57;;;;;;;;;;5027426;28;20128;-77
2023/12/17 06:09:40;;;;;;;41.72;15.77;;;;;;;;;;5030250;28;20040;-77
2023/12/17 06:12:07;;;;;;;33.72;15.50;;;;;;;;;;5026552;28;20029;-77
2023/12/17 06:14:33;;;;;;;32.47;15.73;;;;;;;;;;5030245;28;20029;-76
2023/12/17 06:16:59;;;;;;;42.58;16.63;;;;;;;;;;5030258;28;20037;-76
2023/12/17 06:19:25;;;;;;;44.25;17.17;;;;;;;;;;5025392;28;20034;-77
2023/12/17 06:21:51;;;;;;;35.30;16.20;;;;;;;;;;5028324;28;20034;-76
2023/12/17 06:24:20;;;;;;;35.40;16.95;;;;;;;;;;5012482;28;20067;-75
2023/12/17 06:26:48;;;;;;;41.38;17.83;;;;;;;;;;5009281;28;20030;-76
2023/12/17 06:29:14;;;;;;;37.80;17.27;;;;;;;;;;5029824;28;20025;-78
2023/12/17 06:31:41;;;;;;;41.65;19.15;;;;;;;;;;5028783;28;20037;-77
2023/12/17 06:34:08;;;;;;;45.92;18.58;;;;;;;;;;5014913;28;20033;-76
2023/12/17 06:36:35;;;;;;;44.80;19.98;;;;;;;;;;5029285;28;20025;-77
2023/12/17 06:39:01;;;;;;;46.17;20.20;;;;;;;;;;5024736;28;20492;-76
2023/12/17 06:41:27;;;;;;;42.33;19.35;;;;;;;;;;5028193;28;20116;-77
2023/12/17 06:43:53;;;;;;;42.35;19.75;;;;;;;;;;5028622;28;20117;-77
2023/12/17 06:46:19;;;;;;;40.42;18.63;;;;;;;;;;5011599;28;20040;-77
2023/12/17 06:48:51;;;;;;;42.05;18.88;;;;;;;;;;5008732;28;20041;-77
2023/12/17 06:51:17;;;;;;;45.38;19.95;;;;;;;;;;5010767;28;20025;-76
2023/12/17 06:53:44;;;;;;;42.70;19.23;;;;;;;;;;5029101;28;20045;-75
2023/12/17 06:56:10;;;;;;;49.65;21.25;;;;;;;;;;5028788;28;20502;-77
2023/12/17 06:58:37;;;;;;;52.40;22.92;;;;;;;;;;5030114;28;20053;-76
2023/12/17 07:01:03;;;;;;;47.55;23.70;;;;;;;;;;5029464;28;20037;-78
2023/12/17 07:03:29;;;;;;;53.42;26.42;;;;;;;;;;5008993;28;20049;-76
2023/12/17 07:05:55;;;;;;;51.63;25.33;;;;;;;;;;5030860;28;20021;-76
2023/12/17 07:08:21;;;;;;;53.15;26.60;;;;;;;;;;5007618;28;20108;-75
2023/12/17 07:10:47;;;;;;;60.20;27.80;;;;;;;;;;5028312;28;20106;-77
2023/12/17 07:13:13;;;;;;;54.55;28.45;;;;;;;;;;5029341;28;20056;-77
2023/12/17 07:15:40;;;;;;;56.22;29.23;;;;;;;;;;5029110;28;20109;-77
2023/12/17 07:18:06;;;;;;;54.85;28.13;;;;;;;;;;5009140;28;20397;-77
2023/12/17 07:20:32;;;;;;;64.38;29.58;;;;;;;;;;5023857;28;20041;-76
2023/12/17 07:22:58;;;;;;;65.57;29.83;;;;;;;;;;5014289;28;20021;-76
2023/12/17 07:25:26;;;;;;;59.88;29.88;;;;;;;;;;5013539;28;20033;-75
2023/12/17 07:27:53;;;;;;;60.25;30.65;;;;;;;;;;5029807;28;20033;-77
2023/12/17 07:30:19;;;;;;;62.40;29.80;;;;;;;;;;5028327;28;20033;-77
2023/12/17 07:32:45;;;;;;;53.00;28.17;;;;;;;;;;5027947;28;20088;-76
2023/12/17 07:35:14;;;;;;;54.95;27.60;;;;;;;;;;5019096;28;20045;-76
2023/12/17 07:37:40;;;;;;;55.50;27.17;;;;;;;;;;5026980;28;20093;-77
2023/12/17 07:40:07;;;;;;;50.75;25.77;;;;;;;;;;5025583;28;20041;-77
2023/12/17 07:42:33;;;;;;;49.60;25.83;;;;;;;;;;5027004;28;20050;-78
2023/12/17 07:45:00;;;;;;;49.78;25.20;;;;;;;;;;5028622;28;20378;-77
2023/12/17 07:47:26;;;;;;;55.70;25.27;;;;;;;;;;5030462;28;20034;-80
2023/12/17 07:49:53;;;;;;;42.53;24.10;;;;;;;;;;5026325;28;20030;-79
2023/12/17 07:52:19;;;;;;;43.53;22.98;;;;;;;;;;5021416;28;20029;-79
2023/12/17 07:54:46;;;;;;;42.67;22.65;;;;;;;;;;5025577;28;20033;-77
2023/12/17 07:57:12;;;;;;;38.88;22.45;;;;;;;;;;5026609;28;20348;-77
2023/12/17 07:59:38;;;;;;;42.85;22.38;;;;;;;;;;5027507;28;20057;-77
2023/12/17 08:02:04;;;;;;;39.45;22.75;;;;;;;;;;5026540;28;20041;-76
2023/12/17 08:04:30;;;;;;;46.58;21.88;;;;;;;;;;5028872;28;20030;-76
2023/12/17 08:06:57;;;;;;;40.83;22.27;;;;;;;;;;5022145;28;20052;-76
2023/12/17 08:09:26;;;;;;;40.33;21.33;;;;;;;;;;5009595;28;20396;-77
2023/12/17 08:11:52;;;;;;;42.53;21.15;;;;;;;;;;5019220;28;20033;-77
2023/12/17 08:14:18;;;;;;;40.28;21.02;;;;;;;;;;5029191;28;20100;-76
2023/12/17 08:16:44;;;;;;;39.70;22.10;;;;;;;;;;5027735;28;20041;-77
2023/12/17 08:19:10;;;;;;;40.35;21.30;;;;;;;;;;5028330;28;20486;-76
2023/12/17 08:21:37;;;;;;;37.13;20.42;;;;;;;;;;5029734;28;20061;-77
2023/12/17 08:24:04;;;;;;;40.20;20.30;;;;;;;;;;5028952;28;20030;-78
2023/12/17 08:26:30;;;;;;;36.80;19.05;;;;;;;;;;5030894;28;20030;-77
2023/12/17 08:28:56;;;;;;;36.67;21.33;;;;;;;;;;5031281;28;20132;-76
2023/12/17 08:31:22;;;;;;;34.47;19.13;;;;;;;;;;5013026;28;20053;-78
2023/12/17 08:33:52;;;;;;;33.63;19.13;;;;;;;;;;5012601;28;20055;-77
2023/12/17 08:36:19;;;;;;;35.42;20.30;;;;;;;;;;5013676;28;20092;-76
2023/12/17 08:38:45;;;;;;;36.42;20.20;;;;;;;;;;5019645;28;20037;-76
2023/12/17 08:41:14;;;;;;;32.78;19.83;;;;;;;;;;5028366;28;20426;-76
2023/12/17 08:43:40;;;;;;;38.22;20.33;;;;;;;;;;5008370;28;20395;-77
2023/12/17 08:46:06;;;;;;;39.58;23.33;;;;;;;;;;5015841;28;20034;-76
2023/12/17 08:48:33;;;;;;;38.72;20.33;;;;;;;;;;5025771;28;20080;-76
2023/12/17 08:50:59;;;;;;;37.70;20.58;;;;;;;;;;5011039;28;20117;-78
2023/12/17 08:53:26;;;;;;;33.67;19.27;;;;;;;;;;5028880;28;20033;-78
2023/12/17 08:55:53;;;;;;;39.88;21.30;;;;;;;;;;5029545;28;20033;-76
2023/12/17 08:58:19;;;;;;;38.10;20.63;;;;;;;;;;5029157;28;20086;-76
2023/12/17 09:00:45;;;;;;;34.92;20.70;;;;;;;;;;5027583;28;20505;-77
2023/12/17 09:03:11;;;;;;;36.83;21.38;;;;;;;;;;5027832;28;20076;-76
2023/12/17 09:05:38;;;;;;;45.47;23.85;;;;;;;;;;5029879;28;20402;-76
2023/12/17 09:08:06;;;;;;;35.08;21.38;;;;;;;;;;5027282;28;20048;-77
2023/12/17 09:10:32;;;;;;;50.22;24.48;;;;;;;;;;5027136;28;20397;-77
2023/12/17 09:12:58;;;;;;;38.83;23.23;;;;;;;;;;5028837;28;20037;-77
2023/12/17 09:15:26;;;;;;;48.00;25.00;;;;;;;;;;5031721;28;20041;-77
2023/12/17 09:17:55;;;;;;;53.03;26.70;;;;;;;;;;5030204;28;20057;-76
2023/12/17 09:20:21;;;;;;;50.83;28.58;;;;;;;;;;5012843;28;20048;-77
2023/12/17 09:22:47;;;;;;;47.45;27.25;;;;;;;;;;5011434;28;20530;-78
2023/12/17 09:25:13;;;;;;;50.42;26.70;;;;;;;;;;5012735;28;20056;-76
2023/12/17 09:27:41;;;;;;;49.45;25.02;;;;;;;;;;5012196;28;20044;-77
2023/12/17 09:30:09;;;;;;;49.53;26.65;;;;;;;;;;5009987;28;20042;-77
2023/12/17 09:32:35;;;;;;;49.97;25.70;;;;;;;;;;5011224;28;20072;-77
2023/12/17 09:35:01;;;;;;;48.55;26.58;;;;;;;;;;5019073;28;20049;-77
2023/12/17 09:37:28;;;;;;;49.95;26.40;;;;;;;;;;5031488;28;20095;-77
2023/12/17 09:39:56;;;;;;;51.38;26.13;;;;;;;;;;5030485;28;20045;-77
2023/12/17 09:42:22;;;;;;;52.33;26.92;;;;;;;;;;5032503;28;20087;-76
2023/12/17 09:44:48;;;;;;;53.25;28.05;;;;;;;;;;5032883;28;20026;-77
2023/12/17 09:47:17;;;;;;;54.15;28.55;;;;;;;;;;5032287;28;20044;-77
2023/12/17 09:49:43;;;;;;;62.17;29.70;;;;;;;;;;5031053;28;20049;-76
2023/12/17 09:52:12;;;;;;;64.10;32.22;;;;;;;;;;5030067;28;20056;-76
2023/12/17 09:54:39;;;;;;;63.78;33.05;;;;;;;;;;5032556;28;20029;-78
2023/12/17 09:57:06;;;;;;;64.03;31.55;;;;;;;;;;5032286;28;20444;-77
2023/12/17 09:59:33;;;;;;;67.72;34.17;;;;;;;;;;5031484;28;20179;-76
2023/12/17 10:01:59;;;;;;;64.25;33.90;;;;;;;;;;5030875;28;20112;-77
2023/12/17 10:04:25;;;;;;;67.03;33.35;;;;;;;;;;5031659;28;20033;-77
2023/12/17 10:06:54;;;;;;;64.43;34.08;;;;;;;;;;5014167;28;20026;-77
2023/12/17 10:09:20;;;;;;;69.90;33.70;;;;;;;;;;5031077;28;20056;-77
2023/12/17 10:11:47;;;;;;;71.43;36.38;;;;;;;;;;5031785;28;20034;-76
2023/12/17 10:14:29;;;;;;;78.10;38.05;;;;;;;;;;5031682;28;20060;-77
2023/12/17 10:16:56;;;;;;;86.72;40.28;;;;;;;;;;5013254;28;20434;-78
2023/12/17 10:19:26;;;;;;;78.13;38.60;;;;;;;;;;5029746;28;20499;-75
2023/12/17 10:21:52;;;;;;;85.10;40.10;;;;;;;;;;5031550;28;20064;-77
2023/12/17 10:24:19;;;;;;;77.65;36.63;;;;;;;;;;5030339;28;20279;-77
2023/12/17 10:26:47;;;;;;;76.20;37.92;;;;;;;;;;5028127;28;20490;-76
2023/12/17 10:29:18;;;;;;;76.65;38.83;;;;;;;;;;5029487;28;20110;-76
2023/12/17 10:31:45;;;;;;;81.82;38.78;;;;;;;;;;5028848;28;20059;-78
2023/12/17 10:34:24;;;;;;;76.68;37.53;;;;;;;;;;5031433;28;20502;-78
2023/12/17 10:36:52;;;;;;;84.05;40.42;;;;;;;;;;5034248;28;20112;-76
2023/12/17 10:39:19;;;;;;;74.15;38.20;;;;;;;;;;5025436;28;20037;-77
2023/12/17 10:41:48;;;;;;;76.95;38.45;;;;;;;;;;5032578;28;20029;-75
2023/12/17 10:44:15;;;;;;;78.90;39.53;;;;;;;;;;5022408;28;20273;-75
2023/12/17 10:46:45;;;;;;;71.20;37.28;;;;;;;;;;5031500;28;20040;-75
2023/12/17 10:49:12;;;;;;;79.90;38.53;;;;;;;;;;5026846;28;20029;-77
2023/12/17 10:51:39;;;;;;;69.18;38.80;;;;;;;;;;5026742;28;20083;-77
2023/12/17 10:54:06;;;;;;;65.28;36.70;;;;;;;;;;5030179;28;20044;-76
2023/12/17 10:56:34;;;;;;;69.72;36.38;;;;;;;;;;5009187;28;20045;-78
2023/12/17 10:59:02;;;;;;;66.53;37.50;;;;;;;;;;5023834;28;20197;-75
2023/12/17 11:01:28;;;;;;;61.30;35.70;;;;;;;;;;5029425;28;20034;-75
2023/12/17 11:03:55;;;;;;;62.92;33.63;;;;;;;;;;5029179;28;20028;-77
2023/12/17 11:06:21;;;;;;;61.80;35.53;;;;;;;;;;5027543;28;20273;-76
2023/12/17 11:08:47;;;;;;;64.22;34.83;;;;;;;;;;5008787;28;20025;-76
2023/12/17 11:11:15;;;;;;;59.85;33.03;;;;;;;;;;5029637;28;20595;-77
2023/12/17 11:13:41;;;;;;;61.75;34.35;;;;;;;;;;5029962;28;20076;-77
2023/12/17 11:16:34;;;;;;;58.38;34.45;;;;;;;;;;5027845;28;20013;-76
2023/12/17 11:19:00;;;;;;;56.78;32.70;;;;;;;;;;5025540;28;20068;-75
2023/12/17 11:21:28;;;;;;;55.30;31.73;;;;;;;;;;5028204;28;20041;-76
2023/12/17 11:23:56;;;;;;;56.10;30.40;;;;;;;;;;5027607;28;20033;-77
2023/12/17 11:26:22;;;;;;;53.58;28.65;;;;;;;;;;5017769;28;20620;-78
2023/12/17 11:28:49;;;;;;;53.20;29.30;;;;;;;;;;5029439;28;20053;-77
2023/12/17 11:31:15;;;;;;;52.55;28.42;;;;;;;;;;5011708;28;20045;-77
2023/12/17 11:33:42;;;;;;;57.40;28.88;;;;;;;;;;5029140;28;20048;-78
2023/12/17 11:36:08;;;;;;;56.55;27.30;;;;;;;;;;5027811;28;20040;-76
2023/12/17 11:38:35;;;;;;;50.85;26.23;;;;;;;;;;5024619;28;21150;-78
2023/12/17 11:41:02;;;;;;;53.40;27.27;;;;;;;;;;5027592;28;20106;-77
2023/12/17 11:43:28;;;;;;;48.40;25.13;;;;;;;;;;5025630;28;20034;-77
2023/12/17 11:45:54;;;;;;;57.58;27.30;;;;;;;;;;5028152;28;20082;-78
2023/12/17 11:48:21;;;;;;;57.42;26.08;;;;;;;;;;5016954;28;20029;-76
2023/12/17 11:50:56;;;;;;;57.17;26.38;;;;;;;;;;5026614;28;20038;-78
2023/12/17 11:53:23;;;;;;;55.17;26.42;;;;;;;;;;5027184;28;20080;-77
2023/12/17 11:56:03;;;;;;;51.15;26.20;;;;;;;;;;5009728;28;20446;-77
2023/12/17 11:58:30;;;;;;;54.45;25.25;;;;;;;;;;5028579;28;20048;-78
2023/12/17 12:01:08;;;;;;;55.05;26.33;;;;;;;;;;5027217;28;20041;-75
2023/12/17 12:03:35;;;;;;;52.65;25.23;;;;;;;;;;5027539;28;20167;-78
2023/12/17 12:06:09;;;;;;;49.97;25.30;;;;;;;;;;5011005;28;20033;-77
2023/12/17 12:08:40;;;;;;;57.22;24.52;;;;;;;;;;5028376;28;20506;-76
2023/12/17 12:11:06;;;;;;;50.72;24.38;;;;;;;;;;5006444;28;20495;-76
2023/12/17 12:13:36;;;;;;;53.15;25.27;;;;;;;;;;4992104;28;20034;-77
2023/12/17 12:16:02;;;;;;;46.45;22.80;;;;;;;;;;5010445;28;20038;-76
2023/12/17 12:18:29;;;;;;;44.67;22.00;;;;;;;;;;5013346;28;20031;-77
2023/12/17 12:20:55;;;;;;;43.60;19.52;;;;;;;;;;5011415;28;20375;-76
2023/12/17 12:23:21;;;;;;;41.08;19.23;;;;;;;;;;5029602;28;20479;-75
2023/12/17 12:25:48;;;;;;;39.25;16.33;;;;;;;;;;5029989;28;20029;-77
2023/12/17 12:28:21;;;;;;;37.63;16.55;;;;;;;;;;5010336;28;20406;-76
2023/12/17 12:30:47;;;;;;;31.95;15.23;;;;;;;;;;5011583;28;20502;-76
2023/12/17 12:33:15;;;;;;;38.28;16.02;;;;;;;;;;5029131;28;20041;-77
2023/12/17 12:35:41;;;;;;;36.35;14.80;;;;;;;;;;5028778;28;20049;-77
2023/12/17 12:38:26;;;;;;;28.60;13.02;;;;;;;;;;5029516;28;20037;-79
2023/12/17 12:40:53;;;;;;;27.08;13.38;;;;;;;;;;5029495;28;20057;-77
2023/12/17 12:43:21;;;;;;;28.67;12.20;;;;;;;;;;5027900;28;20036;-74
2023/12/17 12:45:51;;;;;;;26.38;11.70;;;;;;;;;;5029694;28;20029;-77
2023/12/17 12:48:24;;;;;;;27.70;11.65;;;;;;;;;;5011375;28;20065;-76
2023/12/17 12:50:51;;;;;;;28.30;11.38;;;;;;;;;;5032573;28;20029;-76
2023/12/17 12:53:19;;;;;;;27.67;10.13;;;;;;;;;;5031676;28;20495;-75
2023/12/17 12:55:45;;;;;;;37.45;12.00;;;;;;;;;;5031381;28;20109;-77
2023/12/17 12:58:12;;;;;;;28.00;11.10;;;;;;;;;;5014566;28;20552;-75
2023/12/17 13:00:39;;;;;;;34.70;11.48;;;;;;;;;;5032410;28;20037;-77
2023/12/17 13:03:05;;;;;;;32.60;9.48;;;;;;;;;;5030342;28;20083;-78
2023/12/17 13:05:31;;;;;;;27.55;10.38;;;;;;;;;;5032602;28;20056;-78
2023/12/17 13:07:57;;;;;;;33.80;10.23;;;;;;;;;;5031210;28;20057;-76
2023/12/17 13:10:24;;;;;;;35.58;11.18;;;;;;;;;;5031733;28;20029;-77
2023/12/17 13:12:50;;;;;;;31.73;9.63;;;;;;;;;;5032585;28;20455;-78
2023/12/17 13:15:17;;;;;;;24.83;9.15;;;;;;;;;;5032553;28;20037;-76
2023/12/17 13:17:43;;;;;;;26.83;9.32;;;;;;;;;;5031777;28;20201;-75
2023/12/17 13:20:09;;;;;;;26.58;9.90;;;;;;;;;;5032199;28;20123;-77
2023/12/17 13:22:35;;;;;;;25.30;9.65;;;;;;;;;;5032572;28;20426;-75
2023/12/17 13:25:01;;;;;;;26.77;8.82;;;;;;;;;;5030955;28;20033;-77
2023/12/17 13:27:28;;;;;;;24.80;8.80;;;;;;;;;;5014049;28;20438;-77
2023/12/17 13:29:54;;;;;;;26.92;9.48;;;;;;;;;;5031433;28;20041;-77
2023/12/17 13:32:20;;;;;;;32.60;9.50;;;;;;;;;;5014553;28;20483;-77
2023/12/17 13:34:47;;;;;;;25.00;8.65;;;;;;;;;;5033390;28;20033;-76
2023/12/17 13:37:13;;;;;;;24.95;9.10;;;;;;;;;;5014125;28;20068;-76
2023/12/17 13:39:39;;;;;;;23.98;9.27;;;;;;;;;;5031980;28;20087;-77
2023/12/17 13:42:06;;;;;;;23.20;9.07;;;;;;;;;;5030457;28;20037;-77
2023/12/17 13:44:32;;;;;;;25.08;8.35;;;;;;;;;;4997818;28;20068;-77
2023/12/17 13:46:58;;;;;;;26.88;9.25;;;;;;;;;;5031997;28;20038;-76
2023/12/17 13:49:25;;;;;;;27.25;8.02;;;;;;;;;;5031147;28;20049;-77
2023/12/17 13:51:51;;;;;;;25.58;9.27;;;;;;;;;;5030665;28;20483;-76
2023/12/17 13:54:17;;;;;;;36.40;9.13;;;;;;;;;;5016696;28;20087;-75
2023/12/17 13:56:43;;;;;;;31.58;9.07;;;;;;;;;;5034540;28;20041;-75
2023/12/17 13:59:09;;;;;;;27.10;8.93;;;;;;;;;;5037439;28;20088;-77
2023/12/17 14:01:36;;;;;;;24.45;8.52;;;;;;;;;;5036541;28;20386;-75
2023/12/17 14:04:02;;;;;;;20.60;7.65;;;;;;;;;;5033195;28;20383;-76
2023/12/17 14:06:28;;;;;;;24.83;8.63;;;;;;;;;;5033309;28;20094;-76
2023/12/17 14:08:55;;;;;;;25.20;8.52;;;;;;;;;;5013777;28;20741;-76
2023/12/17 14:11:25;;;;;;;30.77;9.63;;;;;;;;;;5031371;28;20033;-76
2023/12/17 14:13:51;;;;;;;26.17;8.85;;;;;;;;;;5031389;28;20029;-76
2023/12/17 14:16:28;;;;;;;24.60;8.02;;;;;;;;;;5013319;28;20461;-76
2023/12/17 14:18:54;;;;;;;23.48;7.88;;;;;;;;;;5029466;28;20037;-77